sensor_id;sensor_type;location;lat;lon;timestamp;pressure;altitude;pressure_sealevel;temperature;humidity
8717;BME280;4395;48.554;8.820;2022-10-31T00:00:35;96375.72;;;13.14;100.00
8717;BME280;4395;48.554;8.820;2022-10-31T00:02:39;96375.16;;;13.12;100.00
8717;BME280;4395;48.554;8.820;2022-10-31T00:04:41;96379.28;;;13.20;100.00
8717;BME280;4395;48.554;8.820;2022-10-31T00:06:44;96380.09;;;13.21;100.00
8717;BME280;4395;48.554;8.820;2022-10-31T00:08:51;96382.72;;;13.15;100.00
8717;BME280;4395;48.554;8.820;2022-10-31T00:10:53;96382.13;;;13.08;100.00
8717;BME280;4395;48.554;8.820;2022-10-31T00:12:56;96371.72;;;12.95;100.00
8717;BME280;4395;48.554;8.820;2022-10-31T00:14:59;96374.38;;;12.90;100.00
8717;BME280;4395;48.554;8.820;2022-10-31T00:17:02;96371.69;;;12.90;100.00
8717;BME280;4395;48.554;8.820;2022-10-31T00:19:07;96372.13;;;12.82;100.00
8717;BME280;4395;48.554;8.820;2022-10-31T00:21:10;94880.22;;;3.43;100.00
8717;BME280;4395;48.554;8.820;2022-10-31T00:23:13;95001.69;;;4.17;100.00
8717;BME280;4395;48.554;8.820;2022-10-31T00:25:17;95597.94;;;8.01;100.00
8717;BME280;4395;48.554;8.820;2022-10-31T00:27:22;95608.88;;;7.83;100.00
8717;BME280;4395;48.554;8.820;2022-10-31T00:29:28;94673.25;;;2.14;100.00
8717;BME280;4395;48.554;8.820;2022-10-31T00:31:31;96365.56;;;12.73;100.00
8717;BME280;4395;48.554;8.820;2022-10-31T00:33:36;95160.25;;;3.35;100.00
8717;BME280;4395;48.554;8.820;2022-10-31T00:35:40;96305.13;;;12.42;100.00
8717;BME280;4395;48.554;8.820;2022-10-31T00:37:44;96370.50;;;12.81;100.00
8717;BME280;4395;48.554;8.820;2022-10-31T00:39:47;95674.03;;;8.05;100.00
8717;BME280;4395;48.554;8.820;2022-10-31T00:41:51;96365.63;;;12.78;100.00
8717;BME280;4395;48.554;8.820;2022-10-31T00:43:54;96170.59;;;11.59;100.00
8717;BME280;4395;48.554;8.820;2022-10-31T00:45:57;96378.34;;;12.82;100.00
8717;BME280;4395;48.554;8.820;2022-10-31T00:48:01;95683.81;;;8.45;100.00
8717;BME280;4395;48.554;8.820;2022-10-31T00:50:05;95582.13;;;7.83;100.00
8717;BME280;4395;48.554;8.820;2022-10-31T00:52:10;95531.91;;;7.57;100.00
8717;BME280;4395;48.554;8.820;2022-10-31T00:54:13;96370.25;;;12.55;100.00
8717;BME280;4395;48.554;8.820;2022-10-31T00:56:15;96368.63;;;12.54;100.00
8717;BME280;4395;48.554;8.820;2022-10-31T00:58:19;96369.69;;;12.53;100.00
8717;BME280;4395;48.554;8.820;2022-10-31T01:00:22;96368.06;;;12.52;100.00
8717;BME280;4395;48.554;8.820;2022-10-31T01:02:25;95239.25;;;5.23;100.00
8717;BME280;4395;48.554;8.820;2022-10-31T01:04:28;96377.59;;;11.95;100.00
8717;BME280;4395;48.554;8.820;2022-10-31T01:06:31;95896.06;;;9.14;100.00
8717;BME280;4395;48.554;8.820;2022-10-31T01:08:36;95872.03;;;9.02;100.00
8717;BME280;4395;48.554;8.820;2022-10-31T01:10:39;96370.72;;;12.26;100.00
8717;BME280;4395;48.554;8.820;2022-10-31T01:12:44;96372.72;;;12.35;100.00
8717;BME280;4395;48.554;8.820;2022-10-31T01:14:48;96378.09;;;12.35;100.00
8717;BME280;4395;48.554;8.820;2022-10-31T01:16:52;96372.72;;;12.35;100.00
8717;BME280;4395;48.554;8.820;2022-10-31T01:18:56;96376.16;;;12.31;100.00
8717;BME280;4395;48.554;8.820;2022-10-31T01:21:04;96371.84;;;12.30;100.00
8717;BME280;4395;48.554;8.820;2022-10-31T01:23:06;96368.84;;;12.26;100.00
8717;BME280;4395;48.554;8.820;2022-10-31T01:25:10;96367.81;;;12.32;100.00
8717;BME280;4395;48.554;8.820;2022-10-31T01:27:13;96369.97;;;12.30;100.00
8717;BME280;4395;48.554;8.820;2022-10-31T01:29:16;96366.19;;;12.31;100.00
8717;BME280;4395;48.554;8.820;2022-10-31T01:31:21;96025.00;;;10.25;100.00
8717;BME280;4395;48.554;8.820;2022-10-31T01:33:24;96366.00;;;12.38;100.00
8717;BME280;4395;48.554;8.820;2022-10-31T01:35:28;96356.03;;;12.38;100.00
8717;BME280;4395;48.554;8.820;2022-10-31T01:37:31;96365.56;;;12.24;100.00
8717;BME280;4395;48.554;8.820;2022-10-31T01:39:34;96050.38;;;10.34;100.00
8717;BME280;4395;48.554;8.820;2022-10-31T01:41:40;96362.13;;;12.29;100.00
8717;BME280;4395;48.554;8.820;2022-10-31T01:43:54;96036.38;;;10.15;100.00
8717;BME280;4395;48.554;8.820;2022-10-31T01:45:57;96360.69;;;12.21;100.00
8717;BME280;4395;48.554;8.820;2022-10-31T01:48:00;96353.03;;;12.13;100.00
8717;BME280;4395;48.554;8.820;2022-10-31T01:50:09;96357.25;;;12.04;100.00
8717;BME280;4395;48.554;8.820;2022-10-31T01:52:18;96358.00;;;11.99;100.00
8717;BME280;4395;48.554;8.820;2022-10-31T01:54:25;96322.97;;;11.60;100.00
8717;BME280;4395;48.554;8.820;2022-10-31T01:56:29;96343.78;;;12.04;100.00
8717;BME280;4395;48.554;8.820;2022-10-31T01:58:34;96350.09;;;11.93;100.00
8717;BME280;4395;48.554;8.820;2022-10-31T02:00:38;96347.41;;;11.93;100.00
8717;BME280;4395;48.554;8.820;2022-10-31T02:02:42;96343.91;;;11.92;100.00
8717;BME280;4395;48.554;8.820;2022-10-31T02:04:46;96343.72;;;11.99;100.00
8717;BME280;4395;48.554;8.820;2022-10-31T02:06:56;96345.91;;;12.02;100.00
8717;BME280;4395;48.554;8.820;2022-10-31T02:09:02;96341.66;;;12.06;100.00
8717;BME280;4395;48.554;8.820;2022-10-31T02:11:06;96344.34;;;12.06;100.00
8717;BME280;4395;48.554;8.820;2022-10-31T02:13:11;96235.69;;;11.35;100.00
8717;BME280;4395;48.554;8.820;2022-10-31T02:15:20;96361.56;;;12.05;100.00
8717;BME280;4395;48.554;8.820;2022-10-31T02:17:23;96353.31;;;11.73;100.00
8717;BME280;4395;48.554;8.820;2022-10-31T02:19:33;96348.66;;;11.85;100.00
8717;BME280;4395;48.554;8.820;2022-10-31T02:21:44;96100.03;;;10.31;100.00
8717;BME280;4395;48.554;8.820;2022-10-31T02:24:05;96349.66;;;12.01;100.00
8717;BME280;4395;48.554;8.820;2022-10-31T02:26:45;96351.66;;;11.88;100.00
8717;BME280;4395;48.554;8.820;2022-10-31T02:29:06;96348.47;;;11.91;100.00
8717;BME280;4395;48.554;8.820;2022-10-31T02:31:28;96339.56;;;11.91;100.00
8717;BME280;4395;48.554;8.820;2022-10-31T02:33:42;96337.19;;;11.95;100.00
8717;BME280;4395;48.554;8.820;2022-10-31T02:35:55;96348.22;;;11.93;100.00
8717;BME280;4395;48.554;8.820;2022-10-31T02:38:12;96342.84;;;11.93;100.00
8717;BME280;4395;48.554;8.820;2022-10-31T02:40:21;96343.72;;;11.99;100.00
8717;BME280;4395;48.554;8.820;2022-10-31T02:43:00;96336.06;;;11.90;100.00
8717;BME280;4395;48.554;8.820;2022-10-31T02:45:08;96336.25;;;11.84;100.00
8717;BME280;4395;48.554;8.820;2022-10-31T02:47:16;96333.25;;;11.80;100.00
8717;BME280;4395;48.554;8.820;2022-10-31T02:49:24;96331.88;;;11.78;100.00
8717;BME280;4395;48.554;8.820;2022-10-31T02:51:29;95990.78;;;9.65;100.00
8717;BME280;4395;48.554;8.820;2022-10-31T02:53:32;96354.13;;;11.73;100.00
8717;BME280;4395;48.554;8.820;2022-10-31T02:55:47;96339.53;;;11.69;100.00
8717;BME280;4395;48.554;8.820;2022-10-31T02:57:54;96333.97;;;11.76;100.00
8717;BME280;4395;48.554;8.820;2022-10-31T03:00:03;96336.84;;;11.69;100.00
8717;BME280;4395;48.554;8.820;2022-10-31T03:02:18;96333.56;;;11.67;100.00
8717;BME280;4395;48.554;8.820;2022-10-31T03:04:36;96330.88;;;11.67;100.00
8717;BME280;4395;48.554;8.820;2022-10-31T03:06:49;96336.44;;;11.77;100.00
8717;BME280;4395;48.554;8.820;2022-10-31T03:09:00;96327.84;;;11.80;100.00
8717;BME280;4395;48.554;8.820;2022-10-31T03:11:06;96335.69;;;11.82;100.00
8717;BME280;4395;48.554;8.820;2022-10-31T03:13:13;96119.72;;;10.37;100.00
8717;BME280;4395;48.554;8.820;2022-10-31T03:15:22;96337.31;;;11.66;100.00
8717;BME280;4395;48.554;8.820;2022-10-31T03:17:32;96333.00;;;11.65;100.00
8717;BME280;4395;48.554;8.820;2022-10-31T03:19:39;96337.31;;;11.27;100.00
8717;BME280;4395;48.554;8.820;2022-10-31T03:21:48;96336.50;;;11.66;100.00
8717;BME280;4395;48.554;8.820;2022-10-31T03:23:56;96242.97;;;10.79;100.00
8717;BME280;4395;48.554;8.820;2022-10-31T03:26:02;96334.50;;;11.56;100.00
8717;BME280;4395;48.554;8.820;2022-10-31T03:28:08;96326.09;;;11.52;100.00
8717;BME280;4395;48.554;8.820;2022-10-31T03:30:14;96330.16;;;11.55;100.00
8717;BME280;4395;48.554;8.820;2022-10-31T03:32:34;96329.13;;;11.56;100.00
8717;BME280;4395;48.554;8.820;2022-10-31T03:34:41;96327.72;;;11.53;100.00
8717;BME280;4395;48.554;8.820;2022-10-31T03:36:46;96335.81;;;11.53;100.00
8717;BME280;4395;48.554;8.820;2022-10-31T03:38:52;96329.03;;;11.51;100.00
8717;BME280;4395;48.554;8.820;2022-10-31T03:40:57;96307.31;;;11.19;100.00
8717;BME280;4395;48.554;8.820;2022-10-31T03:43:05;96336.88;;;11.36;100.00
8717;BME280;4395;48.554;8.820;2022-10-31T03:45:12;96321.72;;;11.30;100.00
8717;BME280;4395;48.554;8.820;2022-10-31T03:47:17;96329.00;;;11.29;100.00
8717;BME280;4395;48.554;8.820;2022-10-31T03:49:23;96336.31;;;11.34;100.00
8717;BME280;4395;48.554;8.820;2022-10-31T03:51:33;96323.19;;;11.37;100.00
8717;BME280;4395;48.554;8.820;2022-10-31T03:53:43;96070.06;;;9.73;100.00
8717;BME280;4395;48.554;8.820;2022-10-31T03:55:56;96213.22;;;10.52;100.00
8717;BME280;4395;48.554;8.820;2022-10-31T03:58:02;96335.34;;;11.23;100.00
8717;BME280;4395;48.554;8.820;2022-10-31T04:00:08;96331.84;;;11.22;100.00
8717;BME280;4395;48.554;8.820;2022-10-31T04:02:22;96330.22;;;11.21;100.00
8717;BME280;4395;48.554;8.820;2022-10-31T04:04:30;96329.72;;;11.24;100.00
8717;BME280;4395;48.554;8.820;2022-10-31T04:06:34;96327.28;;;11.23;100.00
8717;BME280;4395;48.554;8.820;2022-10-31T04:08:42;96330.47;;;11.20;100.00
8717;BME280;4395;48.554;8.820;2022-10-31T04:10:51;96322.06;;;11.16;100.00
8717;BME280;4395;48.554;8.820;2022-10-31T04:12:58;96317.81;;;11.20;100.00
8717;BME280;4395;48.554;8.820;2022-10-31T04:15:13;96321.56;;;11.19;100.00
8717;BME280;4395;48.554;8.820;2022-10-31T04:17:19;96320.75;;;11.19;100.00
8717;BME280;4395;48.554;8.820;2022-10-31T04:19:24;96323.28;;;11.25;100.00
8717;BME280;4395;48.554;8.820;2022-10-31T04:21:29;96321.66;;;10.91;100.00
8717;BME280;4395;48.554;8.820;2022-10-31T04:23:34;96329.78;;;10.62;100.00
8717;BME280;4395;48.554;8.820;2022-10-31T04:25:47;96205.72;;;10.37;100.00
8717;BME280;4395;48.554;8.820;2022-10-31T04:27:51;96312.22;;;11.05;100.00
8717;BME280;4395;48.554;8.820;2022-10-31T04:29:54;96188.75;;;10.20;100.00
8717;BME280;4395;48.554;8.820;2022-10-31T04:31:57;96119.09;;;9.68;100.00
8717;BME280;4395;48.554;8.820;2022-10-31T04:33:59;96313.84;;;11.06;100.00
8717;BME280;4395;48.554;8.820;2022-10-31T04:36:03;96312.78;;;11.07;100.00
8717;BME280;4395;48.554;8.820;2022-10-31T04:38:08;96312.38;;;10.82;100.00
8717;BME280;4395;48.554;8.820;2022-10-31T04:40:13;96306.75;;;10.67;100.00
8717;BME280;4395;48.554;8.820;2022-10-31T04:42:50;96305.38;;;10.81;100.00
8717;BME280;4395;48.554;8.820;2022-10-31T04:44:53;95935.28;;;8.58;100.00
8717;BME280;4395;48.554;8.820;2022-10-31T04:46:56;96307.25;;;10.97;100.00
8717;BME280;4395;48.554;8.820;2022-10-31T04:48:59;96228.94;;;10.60;100.00
8717;BME280;4395;48.554;8.820;2022-10-31T04:51:03;96306.41;;;10.63;100.00
8717;BME280;4395;48.554;8.820;2022-10-31T04:53:07;96297.13;;;11.04;100.00
8717;BME280;4395;48.554;8.820;2022-10-31T04:55:23;96295.66;;;10.97;100.00
8717;BME280;4395;48.554;8.820;2022-10-31T04:57:46;96287.19;;;10.88;100.00
8717;BME280;4395;48.554;8.820;2022-10-31T04:59:50;96286.53;;;10.81;100.00
8717;BME280;4395;48.554;8.820;2022-10-31T05:01:53;96288.50;;;10.85;100.00
8717;BME280;4395;48.554;8.820;2022-10-31T05:04:14;96291.91;;;10.81;100.00
8717;BME280;4395;48.554;8.820;2022-10-31T05:06:17;96325.31;;;10.85;100.00
8717;BME280;4395;48.554;8.820;2022-10-31T05:08:21;96284.50;;;10.88;100.00
8717;BME280;4395;48.554;8.820;2022-10-31T05:10:28;95883.41;;;8.36;100.00
8717;BME280;4395;48.554;8.820;2022-10-31T05:12:33;96289.31;;;10.86;100.00
8717;BME280;4395;48.554;8.820;2022-10-31T05:14:42;96278.56;;;10.86;100.00
8717;BME280;4395;48.554;8.820;2022-10-31T05:17:07;96286.53;;;10.81;100.00
8717;BME280;4395;48.554;8.820;2022-10-31T05:19:33;96286.22;;;10.77;100.00
8717;BME280;4395;48.554;8.820;2022-10-31T05:22:02;96288.00;;;10.72;100.00
8717;BME280;4395;48.554;8.820;2022-10-31T05:24:08;96280.84;;;10.60;100.00
8717;BME280;4395;48.554;8.820;2022-10-31T05:26:13;96279.78;;;10.61;100.00
8717;BME280;4395;48.554;8.820;2022-10-31T05:28:16;96282.31;;;10.40;100.00
8717;BME280;4395;48.554;8.820;2022-10-31T05:30:21;96043.72;;;8.96;100.00
8717;BME280;4395;48.554;8.820;2022-10-31T05:32:24;96285.47;;;10.48;100.00
8717;BME280;4395;48.554;8.820;2022-10-31T05:34:46;96276.91;;;10.51;100.00
8717;BME280;4395;48.554;8.820;2022-10-31T05:37:07;96279.69;;;10.56;100.00
8717;BME280;4395;48.554;8.820;2022-10-31T05:39:12;96274.31;;;10.56;100.00
8717;BME280;4395;48.554;8.820;2022-10-31T05:41:19;96280.84;;;10.60;100.00
8717;BME280;4395;48.554;8.820;2022-10-31T05:43:22;96272.28;;;10.63;100.00
8717;BME280;4395;48.554;8.820;2022-10-31T05:45:26;96270.81;;;10.56;100.00
8717;BME280;4395;48.554;8.820;2022-10-31T05:47:36;96268.13;;;10.56;100.00
8717;BME280;4395;48.554;8.820;2022-10-31T05:50:08;96276.44;;;10.54;100.00
8717;BME280;4395;48.554;8.820;2022-10-31T05:52:22;96281.56;;;10.56;100.00
8717;BME280;4395;48.554;8.820;2022-10-31T05:54:33;96265.91;;;10.53;100.00
8717;BME280;4395;48.554;8.820;2022-10-31T05:56:36;96269.66;;;10.52;100.00
8717;BME280;4395;48.554;8.820;2022-10-31T05:58:39;96271.22;;;10.48;100.00
8717;BME280;4395;48.554;8.820;2022-10-31T06:00:42;96268.19;;;10.44;100.00
8717;BME280;4395;48.554;8.820;2022-10-31T06:02:46;96267.13;;;10.45;100.00
8717;BME280;4395;48.554;8.820;2022-10-31T06:05:04;96266.66;;;10.48;100.00
8717;BME280;4395;48.554;8.820;2022-10-31T06:07:07;96152.53;;;9.77;100.00
8717;BME280;4395;48.554;8.820;2022-10-31T06:09:09;96262.50;;;10.57;100.00
8717;BME280;4395;48.554;8.820;2022-10-31T06:11:14;96261.13;;;10.55;100.00
8717;BME280;4395;48.554;8.820;2022-10-31T06:13:35;96325.38;;;10.56;100.00
8717;BME280;4395;48.554;8.820;2022-10-31T06:15:48;96262.50;;;10.57;100.00
8717;BME280;4395;48.554;8.820;2022-10-31T06:18:00;96269.44;;;10.53;100.00
8717;BME280;4395;48.554;8.820;2022-10-31T06:20:08;96142.88;;;9.48;100.00
8717;BME280;4395;48.554;8.820;2022-10-31T06:22:21;96263.06;;;10.59;100.00
8717;BME280;4395;48.554;8.820;2022-10-31T06:24:24;96264.22;;;10.63;100.00
8717;BME280;4395;48.554;8.820;2022-10-31T06:26:28;96269.91;;;10.67;100.00
8717;BME280;4395;48.554;8.820;2022-10-31T06:28:31;96263.72;;;10.67;100.00
8717;BME280;4395;48.554;8.820;2022-10-31T06:30:45;96259.50;;;10.71;100.00
8717;BME280;4395;48.554;8.820;2022-10-31T06:32:49;96254.13;;;10.71;100.00
8717;BME280;4395;48.554;8.820;2022-10-31T06:34:53;95153.78;;;3.73;100.00
8717;BME280;4395;48.554;8.820;2022-10-31T06:36:57;96270.81;;;10.73;100.00
8717;BME280;4395;48.554;8.820;2022-10-31T06:39:02;96263.41;;;10.80;100.00
8717;BME280;4395;48.554;8.820;2022-10-31T06:41:05;96263.41;;;10.80;100.00
8717;BME280;4395;48.554;8.820;2022-10-31T06:43:23;96258.59;;;10.82;100.00
8717;BME280;4395;48.554;8.820;2022-10-31T06:45:41;96268.06;;;10.84;100.00
8717;BME280;4395;48.554;8.820;2022-10-31T06:47:50;96264.63;;;10.89;100.00
8717;BME280;4395;48.554;8.820;2022-10-31T06:50:29;96157.81;;;10.17;100.00
8717;BME280;4395;48.554;8.820;2022-10-31T06:52:32;96263.56;;;10.90;100.00
8717;BME280;4395;48.554;8.820;2022-10-31T06:54:38;96271.72;;;10.95;100.00
8717;BME280;4395;48.554;8.820;2022-10-31T06:56:41;96274.97;;;10.97;100.00
8717;BME280;4395;48.554;8.820;2022-10-31T06:58:46;96279.03;;;11.00;100.00
8717;BME280;4395;48.554;8.820;2022-10-31T07:00:50;96166.38;;;10.31;100.00
8717;BME280;4395;48.554;8.820;2022-10-31T07:02:54;96275.69;;;11.09;100.00
8717;BME280;4395;48.554;8.820;2022-10-31T07:04:58;96282.28;;;11.18;100.00
8717;BME280;4395;48.554;8.820;2022-10-31T07:07:01;96279.19;;;11.26;100.00
8717;BME280;4395;48.554;8.820;2022-10-31T07:09:05;96280.88;;;11.33;100.00
8717;BME280;4395;48.554;8.820;2022-10-31T07:11:08;96279.25;;;11.32;100.00
8717;BME280;4395;48.554;8.820;2022-10-31T07:13:13;96274.50;;;11.39;100.00
8717;BME280;4395;48.554;8.820;2022-10-31T07:15:26;96275.25;;;11.34;100.00
8717;BME280;4395;48.554;8.820;2022-10-31T07:17:32;96270.19;;;11.38;100.00
8717;BME280;4395;48.554;8.820;2022-10-31T07:19:35;96276.53;;;11.48;100.00
8717;BME280;4395;48.554;8.820;2022-10-31T07:21:38;96279.84;;;11.55;100.00
8717;BME280;4395;48.554;8.820;2022-10-31T07:23:41;96267.44;;;11.54;100.00
8717;BME280;4395;48.554;8.820;2022-10-31T07:26:16;96212.84;;;11.15;100.00
8717;BME280;4395;48.554;8.820;2022-10-31T07:28:21;96271.03;;;11.60;100.00
8717;BME280;4395;48.554;8.820;2022-10-31T07:30:28;96270.84;;;11.67;100.00
8717;BME280;4395;48.554;8.820;2022-10-31T07:32:37;96288.03;;;11.82;100.00
8717;BME280;4395;48.554;8.820;2022-10-31T07:34:40;96274.13;;;11.90;100.00
8717;BME280;4395;48.554;8.820;2022-10-31T07:37:11;95980.28;;;9.80;100.00
8717;BME280;4395;48.554;8.820;2022-10-31T07:39:14;96187.31;;;11.62;100.00
8717;BME280;4395;48.554;8.820;2022-10-31T07:41:17;96273.16;;;12.23;100.00
8717;BME280;4395;48.554;8.820;2022-10-31T07:43:21;96260.03;;;12.32;100.00
8717;BME280;4395;48.554;8.820;2022-10-31T07:45:41;96259.31;;;12.42;100.00
8717;BME280;4395;48.554;8.820;2022-10-31T07:48:04;95873.88;;;10.13;100.00
8717;BME280;4395;48.554;8.820;2022-10-31T07:50:27;96262.22;;;12.35;100.00
8717;BME280;4395;48.554;8.820;2022-10-31T07:53:00;95845.16;;;9.91;100.00
8717;BME280;4395;48.554;8.820;2022-10-31T07:55:12;96268.69;;;12.34;100.00
8717;BME280;4395;48.554;8.820;2022-10-31T07:57:20;96072.91;;;11.59;100.00
8717;BME280;4395;48.554;8.820;2022-10-31T07:59:26;96276.44;;;12.89;100.00
8717;BME280;4395;48.554;8.820;2022-10-31T08:01:30;96275.16;;;12.97;100.00
8717;BME280;4395;48.554;8.820;2022-10-31T08:03:53;96283.63;;;13.06;100.00
8717;BME280;4395;48.554;8.820;2022-10-31T08:06:14;96275.28;;;13.07;100.00
8717;BME280;4395;48.554;8.820;2022-10-31T08:08:45;96268.91;;;13.18;100.00
8717;BME280;4395;48.554;8.820;2022-10-31T08:10:49;96272.44;;;13.24;100.00
8717;BME280;4395;48.554;8.820;2022-10-31T08:12:55;96212.00;;;12.93;100.00
8717;BME280;4395;48.554;8.820;2022-10-31T08:14:59;96280.91;;;13.38;100.00
8717;BME280;4395;48.554;8.820;2022-10-31T08:17:03;96280.94;;;13.43;100.00
8717;BME280;4395;48.554;8.820;2022-10-31T08:19:14;96273.41;;;13.50;100.00
8717;BME280;4395;48.554;8.820;2022-10-31T08:21:17;96278.31;;;13.58;100.00
8717;BME280;4395;48.554;8.820;2022-10-31T08:23:21;96098.78;;;12.56;100.00
8717;BME280;4395;48.554;8.820;2022-10-31T08:25:27;96260.31;;;13.74;100.00
8717;BME280;4395;48.554;8.820;2022-10-31T08:27:37;96040.81;;;12.16;100.00
8717;BME280;4395;48.554;8.820;2022-10-31T08:29:42;96147.72;;;13.17;100.00
8717;BME280;4395;48.554;8.820;2022-10-31T08:31:46;96264.16;;;13.88;100.00
8717;BME280;4395;48.554;8.820;2022-10-31T08:34:09;96260.66;;;13.98;100.00
8717;BME280;4395;48.554;8.820;2022-10-31T08:36:32;96259.91;;;14.12;100.00
8717;BME280;4395;48.554;8.820;2022-10-31T08:38:48;96266.69;;;14.20;100.00
8717;BME280;4395;48.554;8.820;2022-10-31T08:40:52;96260.75;;;14.28;100.00
8717;BME280;4395;48.554;8.820;2022-10-31T08:42:56;96257.25;;;14.33;100.00
8717;BME280;4395;48.554;8.820;2022-10-31T08:45:00;96155.50;;;13.76;100.00
8717;BME280;4395;48.554;8.820;2022-10-31T08:47:04;96252.19;;;14.46;100.00
8717;BME280;4395;48.554;8.820;2022-10-31T08:49:09;96254.91;;;14.57;100.00
8717;BME280;4395;48.554;8.820;2022-10-31T08:51:15;96253.00;;;14.62;100.00
8717;BME280;4395;48.554;8.820;2022-10-31T08:53:19;96248.41;;;14.73;100.00
8717;BME280;4395;48.554;8.820;2022-10-31T08:55:33;96240.31;;;14.83;100.00
8717;BME280;4395;48.554;8.820;2022-10-31T08:57:37;96244.09;;;14.92;100.00
8717;BME280;4395;48.554;8.820;2022-10-31T08:59:41;96240.56;;;15.02;100.00
8717;BME280;4395;48.554;8.820;2022-10-31T09:01:59;96245.69;;;15.08;100.00
8717;BME280;4395;48.554;8.820;2022-10-31T09:04:03;96245.44;;;15.15;100.00
8717;BME280;4395;48.554;8.820;2022-10-31T09:06:07;96246.50;;;15.19;100.00
8717;BME280;4395;48.554;8.820;2022-10-31T09:08:11;96229.97;;;15.21;100.00
8717;BME280;4395;48.554;8.820;2022-10-31T09:10:19;96244.06;;;15.28;100.00
8717;BME280;4395;48.554;8.820;2022-10-31T09:12:21;96238.06;;;15.36;100.00
8717;BME280;4395;48.554;8.820;2022-10-31T09:14:51;96240.78;;;15.41;100.00
8717;BME280;4395;48.554;8.820;2022-10-31T09:17:20;96092.63;;;14.36;100.00
8717;BME280;4395;48.554;8.820;2022-10-31T09:19:45;96242.63;;;15.56;100.00
8717;BME280;4395;48.554;8.820;2022-10-31T09:21:52;96244.03;;;15.63;100.00
8717;BME280;4395;48.554;8.820;2022-10-31T09:23:56;96242.63;;;15.76;100.00
8717;BME280;4395;48.554;8.820;2022-10-31T09:26:01;96248.81;;;15.87;100.00
8717;BME280;4395;48.554;8.820;2022-10-31T09:28:06;96234.47;;;15.81;100.00
8717;BME280;4395;48.554;8.820;2022-10-31T09:30:10;96238.50;;;15.94;100.00
8717;BME280;4395;48.554;8.820;2022-10-31T09:32:13;96230.63;;;15.92;100.00
8717;BME280;4395;48.554;8.820;2022-10-31T09:34:19;96238.69;;;16.07;100.00
8717;BME280;4395;48.554;8.820;2022-10-31T09:36:56;96239.47;;;16.13;100.00
8717;BME280;4395;48.554;8.820;2022-10-31T09:38:59;96236.53;;;16.10;100.00
8717;BME280;4395;48.554;8.820;2022-10-31T09:41:08;96238.06;;;16.26;100.00
8717;BME280;4395;48.554;8.820;2022-10-31T09:43:24;95770.75;;;13.38;100.00
8717;BME280;4395;48.554;8.820;2022-10-31T09:45:33;96229.50;;;16.48;100.00
8717;BME280;4395;48.554;8.820;2022-10-31T09:48:00;96235.97;;;16.57;100.00
8717;BME280;4395;48.554;8.820;2022-10-31T09:50:14;96235.34;;;16.70;100.00
8717;BME280;4395;48.554;8.820;2022-10-31T09:52:21;96234.72;;;16.83;100.00
8717;BME280;4395;48.554;8.820;2022-10-31T09:54:30;96208.09;;;16.46;100.00
8717;BME280;4395;48.554;8.820;2022-10-31T09:56:35;96231.66;;;16.90;100.00
8717;BME280;4395;48.554;8.820;2022-10-31T09:58:42;96235.69;;;16.97;100.00
8717;BME280;4395;48.554;8.820;2022-10-31T10:00:47;96003.47;;;15.55;100.00
8717;BME280;4395;48.554;8.820;2022-10-31T10:02:55;96223.88;;;17.12;100.00
8717;BME280;4395;48.554;8.820;2022-10-31T10:05:01;96224.72;;;17.08;100.00
8717;BME280;4395;48.554;8.820;2022-10-31T10:07:14;96196.72;;;16.83;100.00
8717;BME280;4395;48.554;8.820;2022-10-31T10:09:24;96280.69;;;17.03;100.00
8717;BME280;4395;48.554;8.820;2022-10-31T10:12:04;96212.97;;;17.17;100.00
8717;BME280;4395;48.554;8.820;2022-10-31T10:14:21;96216.16;;;17.24;100.00
8717;BME280;4395;48.554;8.820;2022-10-31T10:16:45;96214.59;;;17.42;100.00
8717;BME280;4395;48.554;8.820;2022-10-31T10:19:02;96220.97;;;17.56;100.00
8717;BME280;4395;48.554;8.820;2022-10-31T10:21:22;95093.09;;;10.60;100.00
8717;BME280;4395;48.554;8.820;2022-10-31T10:23:38;96200.66;;;17.78;100.00
8717;BME280;4395;48.554;8.820;2022-10-31T10:25:47;96098.22;;;17.07;100.00
8717;BME280;4395;48.554;8.820;2022-10-31T10:28:04;96182.41;;;17.54;100.00
8717;BME280;4395;48.554;8.820;2022-10-31T10:30:14;96196.25;;;17.82;100.00
8717;BME280;4395;48.554;8.820;2022-10-31T10:32:22;96201.09;;;17.85;100.00
8717;BME280;4395;48.554;8.820;2022-10-31T10:34:28;96197.97;;;17.96;100.00
8717;BME280;4395;48.554;8.820;2022-10-31T10:36:37;96096.34;;;17.26;100.00
8717;BME280;4395;48.554;8.820;2022-10-31T10:38:49;96141.28;;;17.85;100.00
8717;BME280;4395;48.554;8.820;2022-10-31T10:40:55;96196.19;;;18.29;100.00
8717;BME280;4395;48.554;8.820;2022-10-31T10:43:05;96189.41;;;18.46;100.00
8717;BME280;4395;48.554;8.820;2022-10-31T10:45:25;96190.22;;;18.65;100.00
8717;BME280;4395;48.554;8.820;2022-10-31T10:47:51;96194.44;;;18.90;100.00
8717;BME280;4395;48.554;8.820;2022-10-31T10:49:58;96034.00;;;18.15;98.76
8717;BME280;4395;48.554;8.820;2022-10-31T10:52:08;96050.19;;;18.25;97.88
8717;BME280;4395;48.554;8.820;2022-10-31T10:54:58;96190.09;;;19.35;97.72
8717;BME280;4395;48.554;8.820;2022-10-31T10:57:14;96192.53;;;19.37;97.14
8717;BME280;4395;48.554;8.820;2022-10-31T10:59:21;96182.03;;;19.30;97.76
8717;BME280;4395;48.554;8.820;2022-10-31T11:01:24;95957.59;;;17.97;97.64
8717;BME280;4395;48.554;8.820;2022-10-31T11:03:27;96180.03;;;19.49;97.61
8717;BME280;4395;48.554;8.820;2022-10-31T11:05:35;96179.06;;;19.59;97.07
8717;BME280;4395;48.554;8.820;2022-10-31T11:07:38;96179.47;;;19.52;96.98
8717;BME280;4395;48.554;8.820;2022-10-31T11:09:41;96174.09;;;19.61;95.50
8717;BME280;4395;48.554;8.820;2022-10-31T11:11:44;96166.13;;;19.65;97.27
8717;BME280;4395;48.554;8.820;2022-10-31T11:13:50;96157.75;;;19.75;96.90
8717;BME280;4395;48.554;8.820;2022-10-31T11:15:58;95996.38;;;18.68;95.58
8717;BME280;4395;48.554;8.820;2022-10-31T11:18:01;96155.63;;;19.72;95.51
8717;BME280;4395;48.554;8.820;2022-10-31T11:20:29;95799.91;;;17.51;96.10
8717;BME280;4395;48.554;8.820;2022-10-31T11:22:33;96164.31;;;19.74;97.39
8717;BME280;4395;48.554;8.820;2022-10-31T11:24:38;96157.03;;;19.55;97.70
8717;BME280;4395;48.554;8.820;2022-10-31T11:26:43;96149.75;;;19.51;98.47
8717;BME280;4395;48.554;8.820;2022-10-31T11:28:57;96153.81;;;19.53;97.74
8717;BME280;4395;48.554;8.820;2022-10-31T11:31:06;96145.03;;;19.56;97.72
8717;BME280;4395;48.554;8.820;2022-10-31T11:33:16;96146.03;;;19.61;96.38